Strona główna
METAR-TAF:

METAR-TAF

Lotnisko :

Lake Argyle, Australia

Szerokość geograficzna: 16-38-13S, Długość geograficzna: 128-27-05E, wysokość: 159 m

Aktualna obserwacja pogody

Raport powstał 3 godziny i 19 minut temu, godzina 16:00 UTC
Wiatr 7 kt od północ
Temperatura 31°C
Wilgotność 66%
Ciśnienie 1006 hPa
Widzialność 10 km lub więcej

METAR: YARG 091600Z AUTO 35007KT 9999 // NCD 31/24 Q1006

czas: 03:19 (19:19 UTC)


TAF: brakujący

Obserwacja i prognoza pogody dla ponad 4000 lotnisk (raport METAR i TAF).

Dostępne stacje oznaczono żółtymi i czerwonymi punktami na mapie.

Najedź kursorem aby zobaczyć nazwę stacji.

Kliknij aby zobaczyć obserwacje i prognozy pogody.

Aby zmienić mapę: kliknij na zielony przycisk z czarnym krzyżykiem, aby powiększyć; na zielony przycisk z myślnikiem, aby pomniejszyć; na zielone strzałki, aby przejść do map sąsiednich.


METAR-TAF: